Time;durP1;ratioP1;P1;durP2;ratioP2;P2;SDS_P1;SDS_P2;PMS_P1;PMS_P2;Temp;Humidity;BMP_temperature;BMP_pressure;BME280_temperature;BME280_humidity;BME280_pressure;Samples;Min_cycle;Max_cycle;Signal;HPM_P1;HPM_P2
2021/08/25 03:45:31;;;;;;;17.67;8.38;;;;;;;;;;5998966;23;20042;31
2021/08/25 03:47:56;;;;;;;17.55;8.02;;;;;;;;;;4877738;29;20113;-84
2021/08/25 03:50:21;;;;;;;19.23;8.20;;;;;;;;;;4834052;29;20522;-84
2021/08/25 03:52:47;;;;;;;18.00;8.53;;;;;;;;;;4830068;29;20064;-84
2021/08/25 03:55:12;;;;;;;18.53;8.50;;;;;;;;;;4844829;29;20158;-85
2021/08/25 03:57:37;;;;;;;16.03;8.03;;;;;;;;;;4829018;29;20112;-84
2021/08/25 04:00:03;;;;;;;19.17;9.20;;;;;;;;;;4845893;29;20124;-84
2021/08/25 04:02:29;;;;;;;24.77;7.80;;;;;;;;;;4858626;29;20072;-84
2021/08/25 04:04:54;;;;;;;19.07;8.37;;;;;;;;;;4860757;29;20039;-84
2021/08/25 04:07:19;;;;;;;20.37;8.43;;;;;;;;;;4844932;29;20125;-84
2021/08/25 04:09:45;;;;;;;17.87;8.40;;;;;;;;;;4845320;29;20124;-84
2021/08/25 04:12:10;;;;;;;17.70;7.63;;;;;;;;;;4860329;29;20120;-84
2021/08/25 04:14:35;;;;;;;20.57;8.33;;;;;;;;;;4845272;29;20468;-84
2021/08/25 04:17:01;;;;;;;18.63;7.83;;;;;;;;;;4845188;29;20132;-84
2021/08/25 04:19:26;;;;;;;16.65;8.15;;;;;;;;;;4860792;29;20025;-84
2021/08/25 04:21:51;;;;;;;19.00;8.35;;;;;;;;;;4845075;29;20120;-83
2021/08/25 04:24:17;;;;;;;20.63;8.33;;;;;;;;;;4829899;29;20037;-87
2021/08/25 04:26:43;;;;;;;17.52;7.82;;;;;;;;;;4839929;29;20068;-83
2021/08/25 04:29:08;;;;;;;15.73;7.32;;;;;;;;;;4826657;29;20116;-84
2021/08/25 04:31:34;;;;;;;22.13;8.73;;;;;;;;;;4841510;29;20150;-83
2021/08/25 04:33:59;;;;;;;21.10;8.97;;;;;;;;;;4850977;29;20116;-84
2021/08/25 04:36:24;;;;;;;21.40;8.57;;;;;;;;;;4860055;29;20105;-83
2021/08/25 04:38:50;;;;;;;17.00;7.80;;;;;;;;;;4844573;29;20026;-84
2021/08/25 04:41:15;;;;;;;19.80;8.47;;;;;;;;;;4843650;29;20437;-84
2021/08/25 04:43:41;;;;;;;19.80;8.30;;;;;;;;;;4844868;29;20073;-84
2021/08/25 04:46:06;;;;;;;15.73;8.00;;;;;;;;;;4844272;29;20624;-84
2021/08/25 04:48:31;;;;;;;19.98;9.10;;;;;;;;;;4843739;29;20173;-84
2021/08/25 04:50:57;;;;;;;19.15;8.40;;;;;;;;;;4843964;29;20025;-84
2021/08/25 04:53:23;;;;;;;16.10;7.70;;;;;;;;;;4862684;29;20099;-84
2021/08/25 04:55:49;;;;;;;18.73;8.33;;;;;;;;;;4854969;29;20033;-84
2021/08/25 04:58:14;;;;;;;17.98;8.38;;;;;;;;;;4844099;29;20026;-84
2021/08/25 05:00:40;;;;;;;16.00;7.67;;;;;;;;;;4858171;29;20521;-84
2021/08/25 05:03:05;;;;;;;15.43;7.17;;;;;;;;;;4843806;29;20117;-84
2021/08/25 05:05:31;;;;;;;17.23;7.40;;;;;;;;;;4828971;29;20124;-85
2021/08/25 05:07:56;;;;;;;16.10;7.17;;;;;;;;;;4839824;29;20026;-84
2021/08/25 05:10:21;;;;;;;15.50;7.87;;;;;;;;;;4822051;29;20116;-84
2021/08/25 05:12:47;;;;;;;21.50;8.57;;;;;;;;;;4828982;29;20113;-85
2021/08/25 05:15:12;;;;;;;13.17;7.10;;;;;;;;;;4859413;29;20516;-84
2021/08/25 05:17:37;;;;;;;12.40;6.70;;;;;;;;;;4829003;29;20025;-83
2021/08/25 05:20:04;;;;;;;9.13;5.20;;;;;;;;;;4829333;29;20384;-84
2021/08/25 05:22:29;;;;;;;10.57;5.60;;;;;;;;;;4843987;29;20037;-84
2021/08/25 05:24:54;;;;;;;9.33;5.00;;;;;;;;;;4843937;29;20105;-84
2021/08/25 05:27:20;;;;;;;9.70;5.07;;;;;;;;;;4828880;29;20058;-86
2021/08/25 05:33:07;;;;;;;8.27;4.72;;;;;;;;;;4860011;29;20410;-84
2021/08/25 05:35:32;;;;;;;7.93;4.33;;;;;;;;;;4858674;29;20026;-84
2021/08/25 05:37:58;;;;;;;7.27;4.03;;;;;;;;;;4858746;29;20037;-85
2021/08/25 05:40:23;;;;;;;7.90;4.40;;;;;;;;;;4859025;29;20116;-85
2021/08/25 05:42:48;;;;;;;7.73;4.20;;;;;;;;;;4858838;29;20128;-84
2021/08/25 05:45:14;;;;;;;7.33;4.20;;;;;;;;;;4858834;29;20120;-84
2021/08/25 05:47:39;;;;;;;8.43;4.50;;;;;;;;;;4854065;29;20058;-84
2021/08/25 06:10:58;;;;;;;9.25;4.30;;;;;;;;;;4860850;29;20045;-87
2021/08/25 06:24:03;;;;;;;9.38;4.30;;;;;;;;;;4842132;29;20113;-84
2021/08/25 06:54:30;;;;;;;6.50;2.95;;;;;;;;;;4755006;30;20054;-89
2021/08/25 06:56:56;;;;;;;5.60;3.10;;;;;;;;;;4817473;29;20106;-82
2021/08/25 06:59:21;;;;;;;6.10;2.90;;;;;;;;;;4827849;29;20655;-83
2021/08/25 07:01:46;;;;;;;5.40;3.00;;;;;;;;;;4811474;29;20374;-83
2021/08/25 07:04:12;;;;;;;;;;;;;;;;;;4834367;29;20115;-83
2021/08/25 07:06:37;;;;;;;5.93;2.70;;;;;;;;;;4861440;29;19923;-82
2021/08/25 07:09:02;;;;;;;;;;;;;;;;;;4831364;29;20652;-82
2021/08/25 07:11:27;;;;;;;4.27;2.47;;;;;;;;;;4861379;29;19915;-83
2021/08/25 07:13:53;;;;;;;4.38;2.60;;;;;;;;;;4846037;29;20025;-82
2021/08/25 07:16:18;;;;;;;5.78;2.60;;;;;;;;;;4861465;29;20116;-83
2021/08/25 07:18:44;;;;;;;4.38;2.20;;;;;;;;;;4861534;29;20124;-83
2021/08/25 07:21:12;;;;;;;5.38;2.58;;;;;;;;;;4861171;29;20466;-83
2021/08/25 07:23:37;;;;;;;3.75;2.30;;;;;;;;;;4861223;29;20120;-83
2021/08/25 07:26:03;;;;;;;4.03;2.22;;;;;;;;;;4830596;29;20411;-84
2021/08/25 07:28:28;;;;;;;3.65;2.28;;;;;;;;;;4830906;29;20490;-84
2021/08/25 07:30:53;;;;;;;4.32;2.30;;;;;;;;;;4830377;29;20063;-84
2021/08/25 07:33:20;;;;;;;5.15;2.28;;;;;;;;;;4845985;29;20040;-83
2021/08/25 07:35:46;;;;;;;6.32;2.20;;;;;;;;;;4830740;29;20029;-83
2021/08/25 07:38:12;;;;;;;4.55;2.28;;;;;;;;;;4846039;29;20029;-82
2021/08/25 07:40:38;;;;;;;4.80;2.10;;;;;;;;;;4845608;29;20031;-83
2021/08/25 07:43:03;;;;;;;5.72;2.30;;;;;;;;;;4845850;29;20022;-82
2021/08/25 07:45:29;;;;;;;4.32;2.10;;;;;;;;;;4845255;29;20066;-83
2021/08/25 07:47:54;;;;;;;4.28;2.10;;;;;;;;;;4830165;29;20056;-84
2021/08/25 07:50:19;;;;;;;5.05;2.05;;;;;;;;;;4845515;29;20157;-84
2021/08/25 07:52:45;;;;;;;4.53;1.95;;;;;;;;;;4830110;29;20029;-84
2021/08/25 07:55:23;;;;;;;4.72;2.03;;;;;;;;;;4829926;29;20119;-83
2021/08/25 07:57:49;;;;;;;3.85;2.10;;;;;;;;;;4875040;29;20045;-83
2021/08/25 08:00:14;;;;;;;4.65;1.90;;;;;;;;;;4845654;29;20036;-83
2021/08/25 08:02:39;;;;;;;3.75;1.92;;;;;;;;;;4829803;29;20124;-83
2021/08/25 08:05:05;;;;;;;5.60;2.20;;;;;;;;;;4845326;29;20040;-83
2021/08/25 08:07:31;;;;;;;4.20;2.22;;;;;;;;;;4830220;29;20033;-83
2021/08/25 08:09:56;;;;;;;4.75;2.13;;;;;;;;;;4830392;29;20112;-83
2021/08/25 08:12:21;;;;;;;4.20;2.20;;;;;;;;;;4829849;29;20124;-83
2021/08/25 08:14:47;;;;;;;4.32;2.10;;;;;;;;;;4844856;29;20562;-83
2021/08/25 08:17:13;;;;;;;4.88;2.28;;;;;;;;;;4844832;29;20174;-83
2021/08/25 08:19:38;;;;;;;6.55;2.15;;;;;;;;;;4860671;29;20169;-84
2021/08/25 08:22:04;;;;;;;4.95;2.25;;;;;;;;;;4860308;29;20662;-84
2021/08/25 08:24:29;;;;;;;4.80;2.20;;;;;;;;;;4857424;29;20033;-84
2021/08/25 08:26:54;;;;;;;5.32;2.10;;;;;;;;;;4844545;29;20534;-84
2021/08/25 08:29:20;;;;;;;4.32;2.10;;;;;;;;;;4844825;29;20033;-84
2021/08/25 08:31:45;;;;;;;4.82;2.05;;;;;;;;;;4829508;29;20034;-84
2021/08/25 08:34:11;;;;;;;5.55;2.28;;;;;;;;;;4829314;29;20112;-83
2021/08/25 08:36:36;;;;;;;;;;;;;;;;;;4860623;29;20121;-83
2021/08/25 08:39:01;;;;;;;7.07;2.37;;;;;;;;;;4860012;29;19923;-83
2021/08/25 08:41:27;;;;;;;5.13;2.22;;;;;;;;;;4844569;29;20025;-82
2021/08/25 08:43:52;;;;;;;4.50;2.28;;;;;;;;;;4875595;29;20116;-84
2021/08/25 08:46:18;;;;;;;;;;;;;;;;;;4830009;29;20119;-83
2021/08/25 08:48:44;;;;;;;4.35;2.03;;;;;;;;;;4859963;29;20289;-83
2021/08/25 08:51:09;;;;;;;;;;;;;;;;;;4829742;29;20117;-83
2021/08/25 08:53:35;;;;;;;5.30;2.38;;;;;;;;;;4844501;29;19919;-83
2021/08/25 08:56:00;;;;;;;;;;;;;;;;;;4829534;29;20123;-83
2021/08/25 09:12:48;;;;;;;5.88;2.60;;;;;;;;;;4861261;29;20056;-85
2021/08/25 10:59:33;;;;;;;5.55;2.10;;;;;;;;;;4860274;29;20056;-86
2021/08/25 11:02:00;;;;;;;4.07;1.73;;;;;;;;;;4842522;29;20124;-87
2021/08/25 11:04:25;;;;;;;6.93;2.03;;;;;;;;;;4843342;29;20107;-86
2021/08/25 11:07:09;;;;;;;6.07;2.00;;;;;;;;;;4842897;29;20050;-86
2021/08/25 11:09:44;;;;;;;5.35;2.00;;;;;;;;;;4843824;29;20546;-87
2021/08/25 11:19:31;;;;;;;7.10;2.42;;;;;;;;;;4861207;29;20072;-90
2021/08/25 11:28:59;;;;;;;5.00;2.00;;;;;;;;;;4839819;29;20458;-81
2021/08/25 11:31:27;;;;;;;6.83;2.17;;;;;;;;;;4809169;29;20030;-82
2021/08/25 11:33:53;;;;;;;4.80;1.85;;;;;;;;;;4831110;29;20073;-83
2021/08/25 11:36:18;;;;;;;7.10;2.40;;;;;;;;;;4846626;29;20035;-85
2021/08/25 11:38:43;;;;;;;7.03;2.20;;;;;;;;;;4861879;29;20096;-83
2021/08/25 11:41:09;;;;;;;5.13;2.10;;;;;;;;;;4847001;29;20040;-82
2021/08/25 11:43:44;;;;;;;5.77;2.20;;;;;;;;;;4862470;29;20121;-83
2021/08/25 11:46:10;;;;;;;6.05;2.15;;;;;;;;;;4861639;29;20073;-81
2021/08/25 12:12:52;;;;;;;4.28;1.88;;;;;;;;;;4863488;29;20033;-87
2021/08/25 13:45:05;;;;;;;3.90;1.80;;;;;;;;;;4861103;29;20044;-86
2021/08/25 13:54:55;;;;;;;5.78;2.10;;;;;;;;;;4860988;29;20624;-85
2021/08/25 13:58:09;;;;;;;5.55;2.00;;;;;;;;;;4855685;29;20026;-84
2021/08/25 14:00:55;;;;;;;5.47;2.20;;;;;;;;;;4784689;30;20045;-84
2021/08/25 14:07:28;;;;;;;5.53;2.15;;;;;;;;;;4799576;29;20073;-87
2021/08/25 14:10:36;;;;;;;5.53;2.10;;;;;;;;;;4794743;29;20531;-86
2021/08/25 14:13:50;;;;;;;6.80;2.10;;;;;;;;;;4765972;30;20070;-86
2021/08/25 14:24:30;;;;;;;5.85;2.42;;;;;;;;;;4694120;30;20048;-86
2021/08/25 14:30:51;;;;;;;5.05;2.28;;;;;;;;;;4686377;30;20044;-87
2021/08/25 14:34:15;;;;;;;6.68;2.13;;;;;;;;;;4697406;30;20045;-87
2021/08/25 14:57:46;;;;;;;6.00;2.35;;;;;;;;;;4767511;30;20066;-87
2021/08/25 15:01:26;;;;;;;5.85;2.25;;;;;;;;;;4749625;30;20542;-88
2021/08/25 15:04:41;;;;;;;5.95;2.30;;;;;;;;;;4696666;30;20053;-88
2021/08/25 15:25:28;;;;;;;5.80;2.10;;;;;;;;;;4691388;30;20091;-88
2021/08/25 15:28:50;;;;;;;5.53;2.35;;;;;;;;;;4716981;30;20045;-88
2021/08/25 15:31:15;;;;;;;9.35;2.38;;;;;;;;;;4706258;30;20037;-88
2021/08/25 15:33:44;;;;;;;6.07;2.27;;;;;;;;;;4789735;29;20034;-87
2021/08/25 15:36:13;;;;;;;6.57;2.45;;;;;;;;;;4845580;29;20040;-87
2021/08/25 15:38:43;;;;;;;6.30;2.05;;;;;;;;;;4845856;29;20041;-87
2021/08/25 15:41:10;;;;;;;4.75;2.03;;;;;;;;;;4845455;29;20029;-87
2021/08/25 15:43:36;;;;;;;5.60;2.13;;;;;;;;;;4829867;29;20062;-87
2021/08/25 15:46:09;;;;;;;5.75;2.30;;;;;;;;;;4832226;29;20102;-87
2021/08/25 15:48:42;;;;;;;5.57;2.55;;;;;;;;;;4832172;29;20033;-87
2021/08/25 15:51:08;;;;;;;5.70;2.13;;;;;;;;;;4831715;29;20025;-87
2021/08/25 15:53:36;;;;;;;7.03;2.20;;;;;;;;;;4830918;29;20426;-87
2021/08/25 15:56:02;;;;;;;6.88;2.50;;;;;;;;;;4846535;29;20060;-87
2021/08/25 15:58:28;;;;;;;5.93;2.27;;;;;;;;;;4831627;29;20398;-88
2021/08/25 16:00:57;;;;;;;6.05;2.30;;;;;;;;;;4831291;29;20266;-87
2021/08/25 16:03:25;;;;;;;5.97;2.40;;;;;;;;;;4846710;29;20497;-87
2021/08/25 16:05:54;;;;;;;4.97;2.33;;;;;;;;;;4846899;29;20455;-86
2021/08/25 16:08:19;;;;;;;5.03;2.20;;;;;;;;;;4847238;29;20040;-87
2021/08/25 16:10:48;;;;;;;7.57;2.43;;;;;;;;;;4846397;29;20029;-87
2021/08/25 16:13:15;;;;;;;6.95;2.50;;;;;;;;;;4846492;29;20025;-87
2021/08/25 16:15:53;;;;;;;5.40;2.38;;;;;;;;;;4831446;29;20116;-87
2021/08/25 16:18:26;;;;;;;4.85;2.22;;;;;;;;;;4846017;29;20029;-86
2021/08/25 16:20:52;;;;;;;6.13;2.25;;;;;;;;;;4833020;29;20033;-87
2021/08/25 16:23:21;;;;;;;5.77;2.10;;;;;;;;;;4830908;29;20099;-87
2021/08/25 16:25:52;;;;;;;5.90;2.50;;;;;;;;;;4846512;29;20033;-86
2021/08/25 16:28:20;;;;;;;5.22;2.40;;;;;;;;;;4846369;29;20068;-87
2021/08/25 16:30:45;;;;;;;5.32;2.42;;;;;;;;;;4846450;29;20422;-87
2021/08/25 16:33:13;;;;;;;4.60;2.20;;;;;;;;;;4846317;29;20033;-87
2021/08/25 16:35:39;;;;;;;6.60;2.70;;;;;;;;;;4845785;29;20029;-87
2021/08/25 16:38:04;;;;;;;8.37;2.47;;;;;;;;;;4830510;29;20029;-87
2021/08/25 16:40:31;;;;;;;5.60;2.30;;;;;;;;;;4846047;29;20026;-87
2021/08/25 16:43:00;;;;;;;5.57;2.33;;;;;;;;;;4830817;29;20487;-87
2021/08/25 16:45:28;;;;;;;4.50;2.13;;;;;;;;;;4846533;29;20034;-86
2021/08/25 16:47:53;;;;;;;5.70;2.22;;;;;;;;;;4830890;29;20034;-86
2021/08/25 16:50:22;;;;;;;4.67;2.13;;;;;;;;;;4830457;29;20376;-86
2021/08/25 16:52:51;;;;;;;4.95;2.35;;;;;;;;;;4830589;29;20060;-87
2021/08/25 16:55:38;;;;;;;5.25;2.22;;;;;;;;;;4846036;29;20089;-87
2021/08/25 16:58:04;;;;;;;5.90;2.60;;;;;;;;;;4831455;29;20072;-86
2021/08/25 17:00:34;;;;;;;4.80;2.30;;;;;;;;;;4830637;29;20029;-87
2021/08/25 17:03:12;;;;;;;5.60;2.17;;;;;;;;;;4831212;29;20057;-87
2021/08/25 17:05:41;;;;;;;5.95;2.13;;;;;;;;;;4830359;29;20044;-86
2021/08/25 17:08:08;;;;;;;5.18;2.10;;;;;;;;;;4830191;29;20030;-86
2021/08/25 17:10:34;;;;;;;7.05;2.40;;;;;;;;;;4830748;29;20029;-86
2021/08/25 17:13:04;;;;;;;6.17;2.40;;;;;;;;;;4830338;29;20032;-86
2021/08/25 17:15:38;;;;;;;4.28;1.95;;;;;;;;;;4830409;29;20090;-87
2021/08/25 17:18:04;;;;;;;5.90;2.10;;;;;;;;;;4830099;29;20608;-86
2021/08/25 17:20:30;;;;;;;5.07;2.33;;;;;;;;;;4830069;29;20049;-86
2021/08/25 17:22:55;;;;;;;4.80;2.20;;;;;;;;;;4829929;29;20475;-86
2021/08/25 17:25:22;;;;;;;5.10;2.03;;;;;;;;;;4829849;29;20045;-86
2021/08/25 17:27:48;;;;;;;5.22;2.17;;;;;;;;;;4844815;29;20034;-89
2021/08/25 17:30:13;;;;;;;4.67;2.00;;;;;;;;;;4844417;29;20032;-89
2021/08/25 17:32:40;;;;;;;6.70;2.58;;;;;;;;;;4829518;29;20035;-89
2021/08/25 17:35:08;;;;;;;10.77;4.60;;;;;;;;;;4834633;29;20029;-89
2021/08/25 17:37:36;;;;;;;5.68;2.42;;;;;;;;;;4829760;29;20048;-90
2021/08/25 17:40:02;;;;;;;6.53;2.42;;;;;;;;;;4829577;29;20025;-89
2021/08/25 17:42:31;;;;;;;4.57;2.28;;;;;;;;;;4829147;29;20098;-89
2021/08/25 17:45:01;;;;;;;5.05;2.33;;;;;;;;;;4829719;29;20124;-90
2021/08/25 17:47:31;;;;;;;6.15;2.33;;;;;;;;;;4829785;29;20120;-89
2021/08/25 17:49:56;;;;;;;5.85;2.05;;;;;;;;;;4829593;29;20056;-89
2021/08/25 17:52:22;;;;;;;5.83;2.07;;;;;;;;;;4828860;29;20027;-89
2021/08/25 17:54:53;;;;;;;6.43;2.40;;;;;;;;;;4829220;29;20030;-88
2021/08/25 17:57:21;;;;;;;6.30;2.60;;;;;;;;;;4829447;29;20029;-90
2021/08/25 17:59:49;;;;;;;5.95;2.30;;;;;;;;;;4829354;29;20029;-89
2021/08/25 18:02:57;;;;;;;4.93;2.20;;;;;;;;;;4829016;29;20030;-88
2021/08/25 18:05:28;;;;;;;4.93;2.20;;;;;;;;;;4863143;29;20036;-89
2021/08/25 18:07:54;;;;;;;5.55;2.35;;;;;;;;;;4829346;29;20037;-89
2021/08/25 18:10:22;;;;;;;7.93;2.30;;;;;;;;;;4829308;29;20387;-89
2021/08/25 18:12:50;;;;;;;7.60;2.40;;;;;;;;;;4844183;29;20039;-90
2021/08/25 18:15:16;;;;;;;9.70;2.28;;;;;;;;;;4829375;29;20025;-89
2021/08/25 18:17:43;;;;;;;4.93;2.20;;;;;;;;;;4843777;29;20040;-89
2021/08/25 18:20:09;;;;;;;5.53;2.40;;;;;;;;;;4844273;29;20029;-89
2021/08/25 18:22:36;;;;;;;6.90;2.63;;;;;;;;;;4843917;29;20025;-89
2021/08/25 18:25:05;;;;;;;6.68;2.28;;;;;;;;;;4859120;29;20033;-89
2021/08/25 18:27:31;;;;;;;4.75;2.20;;;;;;;;;;4843097;29;20506;-89
2021/08/25 18:30:11;;;;;;;6.77;2.40;;;;;;;;;;4829040;29;20170;-89
2021/08/25 18:32:55;;;;;;;6.63;2.55;;;;;;;;;;4846528;29;20022;-89
2021/08/25 18:35:20;;;;;;;6.60;2.40;;;;;;;;;;4845427;29;20498;-88
2021/08/25 18:37:46;;;;;;;6.57;2.43;;;;;;;;;;4833463;29;20029;-87
2021/08/25 18:40:12;;;;;;;7.10;2.40;;;;;;;;;;4828736;29;20030;-88
2021/08/25 18:42:37;;;;;;;4.60;2.17;;;;;;;;;;4830340;29;20515;-88
2021/08/25 18:45:03;;;;;;;4.60;2.20;;;;;;;;;;4832128;29;20068;-88
2021/08/25 18:47:28;;;;;;;7.73;2.67;;;;;;;;;;4832112;29;20040;-87
2021/08/25 18:49:54;;;;;;;5.20;2.27;;;;;;;;;;4832547;29;20032;-88
2021/08/25 18:52:19;;;;;;;5.97;2.47;;;;;;;;;;4831881;29;20025;-87
2021/08/25 18:54:45;;;;;;;6.47;2.57;;;;;;;;;;4832126;29;20506;-87
2021/08/25 18:57:10;;;;;;;7.07;2.00;;;;;;;;;;4832026;29;20587;-88
2021/08/25 18:59:36;;;;;;;8.57;2.30;;;;;;;;;;4847387;29;20440;-87
2021/08/25 19:02:01;;;;;;;10.20;2.50;;;;;;;;;;4847191;29;20030;-87
2021/08/25 19:04:27;;;;;;;5.77;2.23;;;;;;;;;;4847030;29;20029;-87
2021/08/25 19:06:52;;;;;;;6.27;2.60;;;;;;;;;;4828737;29;20038;-88
2021/08/25 19:09:17;;;;;;;5.40;2.37;;;;;;;;;;4813690;29;20033;-87
2021/08/25 19:11:43;;;;;;;8.40;2.60;;;;;;;;;;4845045;29;20442;-88
2021/08/25 19:14:11;;;;;;;8.00;2.83;;;;;;;;;;4862480;29;20108;-88
2021/08/25 19:16:36;;;;;;;7.63;2.40;;;;;;;;;;4862187;29;20056;-88
2021/08/25 19:19:02;;;;;;;6.00;2.70;;;;;;;;;;4862232;29;20494;-88
2021/08/25 19:21:29;;;;;;;7.60;2.50;;;;;;;;;;4850856;29;20048;-88
2021/08/25 19:23:55;;;;;;;8.63;2.72;;;;;;;;;;4831805;29;20021;-86
2021/08/25 19:26:21;;;;;;;5.50;2.43;;;;;;;;;;4831532;29;20096;-88
2021/08/25 19:28:48;;;;;;;6.23;2.50;;;;;;;;;;4831226;29;20426;-88
2021/08/25 19:31:14;;;;;;;5.82;2.50;;;;;;;;;;4830471;29;20029;-88
2021/08/25 19:33:39;;;;;;;5.50;2.23;;;;;;;;;;4846836;29;20044;-88
2021/08/25 19:36:05;;;;;;;6.23;2.40;;;;;;;;;;4846505;29;20090;-88
2021/08/25 19:38:32;;;;;;;5.70;2.30;;;;;;;;;;4831532;29;20486;-88
2021/08/25 19:40:57;;;;;;;11.82;3.00;;;;;;;;;;4828199;29;20061;-88
2021/08/25 19:43:23;;;;;;;4.60;2.40;;;;;;;;;;4828217;29;20072;-88
2021/08/25 19:45:48;;;;;;;7.17;2.53;;;;;;;;;;4813283;29;20034;-87
2021/08/25 19:48:14;;;;;;;7.80;2.60;;;;;;;;;;4827989;29;20116;-88
2021/08/25 19:50:41;;;;;;;5.07;2.30;;;;;;;;;;4835261;29;20021;-88
2021/08/25 19:53:17;;;;;;;6.18;2.72;;;;;;;;;;4861768;29;20029;-88
2021/08/25 19:55:42;;;;;;;6.88;2.50;;;;;;;;;;4861546;29;20029;-88
2021/08/25 19:58:13;;;;;;;9.57;2.83;;;;;;;;;;4861547;29;20036;-88
2021/08/25 20:00:53;;;;;;;6.75;2.58;;;;;;;;;;4857640;29;20029;-88
2021/08/25 20:03:30;;;;;;;5.63;2.47;;;;;;;;;;4832287;29;20399;-88
2021/08/25 20:05:55;;;;;;;4.85;2.25;;;;;;;;;;4831049;29;20026;-86
2021/08/25 20:08:24;;;;;;;7.67;2.50;;;;;;;;;;4830278;29;20043;-88
2021/08/25 20:10:52;;;;;;;5.45;2.08;;;;;;;;;;4830401;29;20108;-89
2021/08/25 20:13:22;;;;;;;5.65;2.65;;;;;;;;;;4846469;29;20025;-88
2021/08/25 20:15:47;;;;;;;6.93;2.17;;;;;;;;;;4846161;29;20049;-88
2021/08/25 20:18:13;;;;;;;4.90;2.20;;;;;;;;;;4845709;29;20036;-88
2021/08/25 20:20:38;;;;;;;5.27;2.60;;;;;;;;;;4842462;29;20082;-88
2021/08/25 20:23:04;;;;;;;5.77;2.53;;;;;;;;;;4830343;29;20030;-87
2021/08/25 20:25:29;;;;;;;5.30;2.47;;;;;;;;;;4845616;29;20025;-87
2021/08/25 20:27:55;;;;;;;9.13;2.70;;;;;;;;;;4830269;29;20110;-88
2021/08/25 20:30:20;;;;;;;7.07;2.70;;;;;;;;;;4830256;29;20480;-88
2021/08/25 20:32:45;;;;;;;5.93;2.80;;;;;;;;;;4830105;29;20037;-87
2021/08/25 20:35:11;;;;;;;4.80;2.00;;;;;;;;;;4830279;29;20041;-88
2021/08/25 20:37:36;;;;;;;6.93;2.87;;;;;;;;;;4845634;29;20541;-87
2021/08/25 20:40:02;;;;;;;7.17;2.60;;;;;;;;;;4845350;29;20483;-88
2021/08/25 20:42:27;;;;;;;5.23;2.53;;;;;;;;;;4845025;29;20085;-88
2021/08/25 20:44:53;;;;;;;7.30;2.50;;;;;;;;;;4819556;29;20034;-90
2021/08/25 20:47:18;;;;;;;5.63;2.63;;;;;;;;;;4842225;29;20090;-89
2021/08/25 20:49:43;;;;;;;7.17;2.50;;;;;;;;;;4841862;29;20034;-88
2021/08/25 20:52:09;;;;;;;6.17;2.43;;;;;;;;;;4848950;29;20036;-88
2021/08/25 20:54:34;;;;;;;8.83;2.53;;;;;;;;;;4843902;29;20040;-83
2021/08/25 20:57:00;;;;;;;7.87;2.70;;;;;;;;;;4839427;29;20029;-83
2021/08/25 20:59:25;;;;;;;5.87;2.60;;;;;;;;;;4830344;29;20030;-83
